Hilldale, Pennsylvania
Current Conditions -  °F | °C
As of 11:54 AM on Thursday 27 Nov 2014 (Local Time) from KAVP Reporting Station
Light Snow Light Snow  
Wind Chill: 23°   Ceiling: 2000
Heat Index: 32°   Visibility: 4mi
Dew Point: 25°   Wind: 13mph
Humidity: 75%   Direction: 300°WNW
Pressure: 29.99"   Gusts: NA
Location:  41.2711°N, 75.8417°W
Report Text: KAVP 271654Z 30011KT 4SM -SN SCT014 BKN020 OVC043 00/M04 A2999 RMK AO2 SNE17B37 SLP164 P0000 T00001039
Loading
Personal Weather Stations






























Interactive Weather Map New forecast layout! Learn more

10-Day Weather Forecast

Advertisements
Track Severe Weather on mobile